Time;durP1;ratioP1;P1;durP2;ratioP2;P2;SDS_P1;SDS_P2;PMS_P1;PMS_P2;Temp;Humidity;BMP_temperature;BMP_pressure;BME280_temperature;BME280_humidity;BME280_pressure;Samples;Min_cycle;Max_cycle;Signal;HPM_P1;HPM_P2
2021/05/03 00:00:09;;;;;;;;;;;23.20;37.10;;;;;;1561406;74;1162;-56
2021/05/03 00:02:11;;;;;;;;;;;23.20;37.10;;;;;;1559305;74;697;-56
2021/05/03 00:04:13;;;;;;;;;;;23.20;37.10;;;;;;1551944;74;785;-54
2021/05/03 00:06:15;;;;;;;;;;;23.20;37.00;;;;;;1569257;74;746;-53
2021/05/03 00:08:16;;;;;;;;;;;23.20;37.00;;;;;;1563801;74;1950;-56
2021/05/03 00:10:18;;;;;;;;;;;23.20;37.00;;;;;;1558034;74;1119;-56
2021/05/03 00:12:20;;;;;;;;;;;23.20;36.90;;;;;;1572103;74;959;-57
2021/05/03 00:14:22;;;;;;;;;;;23.20;36.90;;;;;;1565630;74;860;-56
2021/05/03 00:16:24;;;;;;;;;;;23.20;36.90;;;;;;1560735;74;794;-57
2021/05/03 00:18:26;;;;;;;;;;;23.20;36.80;;;;;;1565511;74;755;-54
2021/05/03 00:20:28;;;;;;;;;;;23.20;36.80;;;;;;1566646;74;1148;-56
2021/05/03 00:22:30;;;;;;;;;;;23.20;36.80;;;;;;1557872;74;784;-55
2021/05/03 00:24:32;;;;;;;;;;;23.20;36.80;;;;;;1572995;74;716;-54
2021/05/03 00:26:33;;;;;;;;;;;23.20;36.80;;;;;;1557265;74;741;-57
2021/05/03 00:28:35;;;;;;;;;;;23.30;36.80;;;;;;1563823;74;1940;-56
2021/05/03 00:30:37;;;;;;;;;;;23.20;36.70;;;;;;1560469;74;1179;-56
2021/05/03 00:32:39;;;;;;;;;;;23.20;36.80;;;;;;1567201;74;736;-53
2021/05/03 00:34:41;;;;;;;;;;;23.20;36.80;;;;;;1569875;74;914;-56
2021/05/03 00:36:43;;;;;;;;;;;23.20;36.70;;;;;;1571945;74;723;-55
2021/05/03 00:38:45;;;;;;;;;;;23.20;36.70;;;;;;1548059;74;758;-53
2021/05/03 00:40:46;;;;;;;;;;;23.30;36.80;;;;;;1562439;74;1104;-56
2021/05/03 00:42:48;;;;;;;;;;;23.20;36.80;;;;;;1558377;74;819;-56
2021/05/03 00:44:51;;;;;;;;;;;23.30;36.90;;;;;;1569282;74;743;-56
2021/05/03 00:46:55;;;;;;;;;;;23.20;36.90;;;;;;1554818;74;741;-55
2021/05/03 00:48:57;;;;;;;;;;;23.20;36.90;;;;;;1552034;74;1904;-56
2021/05/03 00:50:59;;;;;;;;;;;23.30;37.00;;;;;;1544398;74;1075;-57
2021/05/03 00:53:01;;;;;;;;;;;23.20;36.90;;;;;;1567182;74;792;-57
2021/05/03 00:55:03;;;;;;;;;;;23.20;36.90;;;;;;1556268;74;695;-58
2021/05/03 00:57:06;;;;;;;;;;;23.20;36.80;;;;;;1562524;74;698;-57
2021/05/03 00:59:08;;;;;;;;;;;23.30;37.00;;;;;;1568733;74;1145;-57
2021/05/03 01:01:09;;;;;;;;;;;23.20;36.90;;;;;;1568202;74;802;-55
2021/05/03 01:03:11;;;;;;;;;;;23.20;36.90;;;;;;1550011;74;675;-57
2021/05/03 01:05:13;;;;;;;;;;;23.20;36.90;;;;;;1552527;74;770;-58
2021/05/03 01:07:15;;;;;;;;;;;23.20;36.90;;;;;;1554889;74;1935;-57
2021/05/03 01:09:18;;;;;;;;;;;23.20;36.80;;;;;;1553567;74;1138;-57
2021/05/03 01:11:20;;;;;;;;;;;23.20;36.80;;;;;;1580812;74;750;-57
2021/05/03 01:13:22;;;;;;;;;;;23.20;36.80;;;;;;1552982;74;785;-56
2021/05/03 01:15:24;;;;;;;;;;;23.20;36.80;;;;;;1547784;75;797;-57
2021/05/03 01:17:32;;;;;;;;;;;23.20;36.80;;;;;;1560070;75;733;-56
2021/05/03 01:19:34;;;;;;;;;;;23.20;36.80;;;;;;1564455;74;1120;-54
2021/05/03 01:21:36;;;;;;;;;;;23.20;36.90;;;;;;1558270;74;738;-53
2021/05/03 01:23:38;;;;;;;;;;;23.20;36.80;;;;;;1573000;74;746;-56
2021/05/03 01:25:41;;;;;;;;;;;23.20;36.90;;;;;;1567108;74;788;-56
2021/05/03 01:27:44;;;;;;;;;;;23.20;36.90;;;;;;1558138;74;1918;-57
2021/05/03 01:29:46;;;;;;;;;;;23.20;36.80;;;;;;1572051;74;1136;-57
2021/05/03 01:31:48;;;;;;;;;;;23.20;36.80;;;;;;1568436;74;714;-55
2021/05/03 01:33:50;;;;;;;;;;;23.20;36.80;;;;;;1558903;74;750;-56
2021/05/03 01:35:52;;;;;;;;;;;23.20;36.70;;;;;;1575111;74;713;-52
2021/05/03 01:37:54;;;;;;;;;;;23.20;36.70;;;;;;1554597;74;785;-56
2021/05/03 01:39:56;;;;;;;;;;;23.20;36.70;;;;;;1568819;74;1192;-53
2021/05/03 01:41:58;;;;;;;;;;;23.20;36.70;;;;;;1572726;74;829;-57
2021/05/03 01:44:00;;;;;;;;;;;23.20;36.60;;;;;;1561524;74;797;-56
2021/05/03 01:46:02;;;;;;;;;;;23.20;36.60;;;;;;1564405;74;691;-55
2021/05/03 01:48:04;;;;;;;;;;;23.30;36.70;;;;;;1565310;74;1925;-55
2021/05/03 01:52:10;;;;;;;;;;;23.20;36.50;;;;;;1539092;74;646;-55
2021/05/03 01:54:12;;;;;;;;;;;23.20;36.50;;;;;;1561668;74;850;-56
2021/05/03 01:56:14;;;;;;;;;;;23.20;36.60;;;;;;1542898;76;798;-56
2021/05/03 01:58:16;;;;;;;;;;;23.20;36.70;;;;;;1552524;74;689;-56
2021/05/03 02:00:18;;;;;;;;;;;23.20;36.70;;;;;;1578773;74;1183;-57
2021/05/03 02:02:20;;;;;;;;;;;23.10;36.70;;;;;;1573605;74;712;-57
2021/05/03 02:04:22;;;;;;;;;;;23.20;36.70;;;;;;1577414;74;762;-56
2021/05/03 02:06:24;;;;;;;;;;;23.10;36.70;;;;;;1584604;74;684;-54
2021/05/03 02:08:26;;;;;;;;;;;23.20;36.70;;;;;;1573469;74;1935;-52
2021/05/03 02:10:28;;;;;;;;;;;23.10;36.80;;;;;;1557272;74;1130;-56
2021/05/03 02:12:30;;;;;;;;;;;23.10;36.70;;;;;;1579122;74;729;-56
2021/05/03 02:14:32;;;;;;;;;;;23.10;36.70;;;;;;1581614;74;718;-53
2021/05/03 02:16:33;;;;;;;;;;;23.10;36.70;;;;;;1573291;74;738;-56
2021/05/03 02:18:35;;;;;;;;;;;23.10;36.80;;;;;;1573179;74;829;-56
2021/05/03 02:20:37;;;;;;;;;;;23.10;36.90;;;;;;1572969;74;1089;-55
2021/05/03 02:22:39;;;;;;;;;;;23.10;36.80;;;;;;1578414;74;746;-55
2021/05/03 02:24:41;;;;;;;;;;;23.10;36.80;;;;;;1572125;74;802;-52
2021/05/03 02:26:43;;;;;;;;;;;23.10;36.80;;;;;;1580721;74;740;-55
2021/05/03 02:28:45;;;;;;;;;;;23.10;36.80;;;;;;1577288;74;1972;-55
2021/05/03 02:30:47;;;;;;;;;;;23.10;36.80;;;;;;1573668;74;1224;-56
2021/05/03 02:32:48;;;;;;;;;;;23.00;36.70;;;;;;1568406;74;798;-56
2021/05/03 02:34:50;;;;;;;;;;;23.10;36.80;;;;;;1561364;74;725;-56
2021/05/03 02:36:55;;;;;;;;;;;23.00;36.50;;;;;;1577025;74;705;-56
2021/05/03 02:38:56;;;;;;;;;;;23.10;36.60;;;;;;1577377;74;1775;-53
2021/05/03 02:40:58;;;;;;;;;;;23.00;36.50;;;;;;1579297;74;1068;-57
2021/05/03 02:43:00;;;;;;;;;;;23.00;36.50;;;;;;1564272;74;750;-57
2021/05/03 02:45:01;;;;;;;;;;;23.00;36.80;;;;;;1581812;74;802;-56
2021/05/03 02:47:03;;;;;;;;;;;22.90;36.90;;;;;;1559913;74;777;-56
2021/05/03 02:49:05;;;;;;;;;;;22.80;36.90;;;;;;1567430;74;1939;-50
2021/05/03 02:51:07;;;;;;;;;;;22.80;37.30;;;;;;1581372;74;790;-56
2021/05/03 02:53:09;;;;;;;;;;;22.80;37.30;;;;;;1562379;74;720;-56
2021/05/03 02:55:11;;;;;;;;;;;22.80;37.40;;;;;;1575630;74;676;-55
2021/05/03 02:57:13;;;;;;;;;;;22.70;37.50;;;;;;1562814;74;677;-55
2021/05/03 02:59:15;;;;;;;;;;;22.60;37.30;;;;;;1568415;74;1148;-51
2021/05/03 03:01:17;;;;;;;;;;;22.70;37.50;;;;;;1557276;74;749;-52
2021/05/03 03:03:19;;;;;;;;;;;22.60;37.70;;;;;;1564532;74;819;-56
2021/05/03 03:05:21;;;;;;;;;;;22.60;38.00;;;;;;1563074;74;827;-56
2021/05/03 03:07:23;;;;;;;;;;;22.60;38.10;;;;;;1563487;74;799;-56
2021/05/03 03:09:25;;;;;;;;;;;22.60;38.20;;;;;;1577849;74;1938;-56
2021/05/03 03:11:27;;;;;;;;;;;22.60;38.40;;;;;;1566245;74;740;-54
2021/05/03 03:13:30;;;;;;;;;;;22.60;38.50;;;;;;1569863;74;814;-55
2021/05/03 03:15:35;;;;;;;;;;;22.60;38.50;;;;;;1577995;74;672;-53
2021/05/03 03:17:36;;;;;;;;;;;22.60;38.60;;;;;;1567390;74;1647;-56
2021/05/03 03:19:40;;;;;;;;;;;22.70;39.00;;;;;;1574264;74;1156;-56
2021/05/03 03:21:42;;;;;;;;;;;22.60;39.00;;;;;;1570217;74;704;-53
2021/05/03 03:23:44;;;;;;;;;;;22.60;39.10;;;;;;1584198;73;708;-51
2021/05/03 03:25:46;;;;;;;;;;;22.60;39.10;;;;;;1574946;74;725;-56
2021/05/03 03:27:48;;;;;;;;;;;22.70;39.20;;;;;;1571052;74;779;-56
2021/05/03 03:29:50;;;;;;;;;;;22.60;39.10;;;;;;1576840;74;1942;-56
2021/05/03 03:31:52;;;;;;;;;;;22.70;39.20;;;;;;1566268;74;787;-56
2021/05/03 03:33:54;;;;;;;;;;;22.70;39.30;;;;;;1575130;74;737;-56
2021/05/03 03:35:56;;;;;;;;;;;22.70;39.30;;;;;;1569164;74;676;-56
2021/05/03 03:37:58;;;;;;;;;;;22.70;39.30;;;;;;1579588;74;752;-53
2021/05/03 03:40:00;;;;;;;;;;;22.70;39.20;;;;;;1580248;74;1151;-56
2021/05/03 03:42:02;;;;;;;;;;;22.70;39.40;;;;;;1567232;74;796;-56
2021/05/03 03:44:04;;;;;;;;;;;22.70;39.30;;;;;;1575660;74;710;-53
2021/05/03 03:46:06;;;;;;;;;;;22.70;39.30;;;;;;1570890;74;718;-54
2021/05/03 03:48:08;;;;;;;;;;;22.70;39.10;;;;;;1568567;74;1947;-51
2021/05/03 03:50:10;;;;;;;;;;;22.80;39.00;;;;;;1511857;77;1137;-56
2021/05/03 03:52:12;;;;;;;;;;;22.70;39.10;;;;;;1496056;77;801;-56
2021/05/03 03:54:14;;;;;;;;;;;22.80;39.00;;;;;;1526103;76;859;-55
2021/05/03 03:56:17;;;;;;;;;;;22.80;38.90;;;;;;1536125;76;713;-56
2021/05/03 03:58:19;;;;;;;;;;;22.70;38.80;;;;;;1529683;76;731;-56
2021/05/03 04:00:23;;;;;;;;;;;22.80;39.20;;;;;;1542053;76;1162;-57
2021/05/03 04:02:25;;;;;;;;;;;22.80;38.90;;;;;;1537162;76;753;-56
2021/05/03 04:04:29;;;;;;;;;;;22.70;38.90;;;;;;1536071;76;793;-53
2021/05/03 04:06:42;;;;;;;;;;;22.80;39.10;;;;;;1535537;76;1123;-57
2021/05/03 04:10:58;;;;;;;;;;;22.80;39.00;;;;;;1565659;74;1288;-53
2021/05/03 04:24:21;;;;;;;;;;;22.80;38.90;;;;;;1568612;74;860;-52
2021/05/03 04:26:18;;;;;;;;;;;22.80;38.70;;;;;;1562566;74;1750;-57
2021/05/03 04:28:20;;;;;;;;;;;22.70;38.80;;;;;;1567619;74;1950;-53
2021/05/03 04:30:22;;;;;;;;;;;22.80;38.70;;;;;;1565463;74;1265;-54
2021/05/03 04:32:24;;;;;;;;;;;22.70;38.60;;;;;;1558836;74;774;-57
2021/05/03 04:34:27;;;;;;;;;;;22.80;38.60;;;;;;1568612;74;770;-57
2021/05/03 04:36:28;;;;;;;;;;;22.70;38.60;;;;;;1575766;74;732;-57
2021/05/03 04:38:30;;;;;;;;;;;22.70;38.60;;;;;;1564377;74;723;-56
2021/05/03 04:40:32;;;;;;;;;;;22.80;38.60;;;;;;1577231;74;1166;-56
2021/05/03 04:42:34;;;;;;;;;;;22.80;38.60;;;;;;1573994;74;789;-57
2021/05/03 04:44:36;;;;;;;;;;;22.80;38.60;;;;;;1574820;74;709;-56
2021/05/03 04:46:38;;;;;;;;;;;22.80;38.50;;;;;;1568535;74;743;-56
2021/05/03 04:48:40;;;;;;;;;;;22.70;38.50;;;;;;1578447;74;1936;-55
2021/05/03 04:50:42;;;;;;;;;;;22.80;38.50;;;;;;1572889;74;1068;-52
2021/05/03 04:52:43;;;;;;;;;;;22.80;38.40;;;;;;1567943;74;785;-53
2021/05/03 04:54:45;;;;;;;;;;;22.80;38.40;;;;;;1578320;74;734;-57
2021/05/03 04:56:47;;;;;;;;;;;22.70;38.30;;;;;;1568186;74;775;-57
2021/05/03 04:58:49;;;;;;;;;;;22.80;38.40;;;;;;1576937;74;842;-56
2021/05/03 05:00:51;;;;;;;;;;;22.80;38.30;;;;;;1574674;74;1168;-56
2021/05/03 05:02:53;;;;;;;;;;;22.80;38.30;;;;;;1572625;74;701;-56
2021/05/03 05:04:55;;;;;;;;;;;22.80;38.40;;;;;;1578742;74;818;-53
2021/05/03 05:06:59;;;;;;;;;;;22.80;38.30;;;;;;1564615;74;752;-54
2021/05/03 05:09:05;;;;;;;;;;;22.80;38.30;;;;;;1564949;74;1939;-56
2021/05/03 05:11:04;;;;;;;;;;;22.90;38.40;;;;;;1566761;74;1524;-56
2021/05/03 05:13:06;;;;;;;;;;;22.80;38.20;;;;;;1570323;74;719;-57
2021/05/03 05:15:08;;;;;;;;;;;22.70;38.20;;;;;;1572265;74;783;-56
2021/05/03 05:17:10;;;;;;;;;;;22.80;38.20;;;;;;1571070;74;784;-54
2021/05/03 05:19:13;;;;;;;;;;;22.70;38.20;;;;;;1570480;74;1132;-55
2021/05/03 05:21:15;;;;;;;;;;;22.80;38.50;;;;;;1567751;74;746;-58
2021/05/03 05:23:16;;;;;;;;;;;22.80;39.00;;;;;;1574114;74;773;-57
2021/05/03 05:25:18;;;;;;;;;;;22.80;38.60;;;;;;1575327;74;831;-57
2021/05/03 05:27:20;;;;;;;;;;;22.80;38.60;;;;;;1574194;74;818;-56
2021/05/03 05:29:26;;;;;;;;;;;22.80;38.80;;;;;;1564285;74;1935;-53
2021/05/03 05:31:26;;;;;;;;;;;22.90;39.00;;;;;;1562834;74;1324;-57
2021/05/03 05:33:27;;;;;;;;;;;22.80;38.80;;;;;;1576230;74;786;-54
2021/05/03 05:35:29;;;;;;;;;;;22.90;38.90;;;;;;1572859;74;786;-56
2021/05/03 05:37:31;;;;;;;;;;;22.90;38.80;;;;;;1567884;74;728;-56
2021/05/03 05:39:33;;;;;;;;;;;22.90;38.70;;;;;;1571768;74;1173;-54
2021/05/03 05:41:35;;;;;;;;;;;22.90;38.60;;;;;;1566770;74;717;-54
2021/05/03 05:43:37;;;;;;;;;;;22.90;38.70;;;;;;1558086;74;746;-54
2021/05/03 05:45:39;;;;;;;;;;;22.90;39.10;;;;;;1566877;74;770;-53
2021/05/03 05:47:41;;;;;;;;;;;22.90;39.50;;;;;;1562718;74;805;-55
2021/05/03 05:49:43;;;;;;;;;;;23.00;38.70;;;;;;1581976;74;1952;-56
2021/05/03 05:51:45;;;;;;;;;;;23.00;38.30;;;;;;1572426;74;781;-52
2021/05/03 05:53:47;;;;;;;;;;;23.10;38.00;;;;;;1571429;74;785;-55
2021/05/03 05:55:49;;;;;;;;;;;23.20;37.60;;;;;;1569025;74;766;-56
2021/05/03 05:57:51;;;;;;;;;;;23.30;37.30;;;;;;1572905;74;722;-56
2021/05/03 05:59:53;;;;;;;;;;;23.30;36.90;;;;;;1564809;74;1083;-55
2021/05/03 06:01:54;;;;;;;;;;;23.30;36.70;;;;;;1568244;74;653;-53
2021/05/03 06:03:56;;;;;;;;;;;23.30;36.50;;;;;;1572790;74;672;-53
2021/05/03 06:05:58;;;;;;;;;;;23.40;36.40;;;;;;1567752;74;731;-52
2021/05/03 06:08:00;;;;;;;;;;;23.30;36.30;;;;;;1577805;74;754;-56
2021/05/03 06:10:02;;;;;;;;;;;23.30;36.00;;;;;;1576847;74;1947;-56
2021/05/03 06:12:04;;;;;;;;;;;23.30;36.00;;;;;;1580424;74;759;-55
2021/05/03 06:14:06;;;;;;;;;;;23.30;36.00;;;;;;1577790;74;807;-53
2021/05/03 06:16:08;;;;;;;;;;;23.40;35.90;;;;;;1573287;74;775;-56
2021/05/03 06:18:10;;;;;;;;;;;23.40;35.90;;;;;;1573051;74;720;-54
2021/05/03 06:20:12;;;;;;;;;;;23.30;35.90;;;;;;1572193;74;1103;-56
2021/05/03 06:22:14;;;;;;;;;;;23.30;36.00;;;;;;1577903;74;801;-56
2021/05/03 06:24:16;;;;;;;;;;;23.30;36.00;;;;;;1565656;74;757;-56
2021/05/03 06:26:18;;;;;;;;;;;23.20;36.00;;;;;;1575894;74;930;-55
2021/05/03 06:28:21;;;;;;;;;;;23.20;36.10;;;;;;1573117;74;665;-55
2021/05/03 06:30:24;;;;;;;;;;;23.30;36.20;;;;;;1568409;74;1900;-55
2021/05/03 06:32:26;;;;;;;;;;;23.30;36.10;;;;;;1567866;74;793;-55
2021/05/03 06:34:30;;;;;;;;;;;23.50;36.10;;;;;;1578842;74;753;-53
2021/05/03 06:36:32;;;;;;;;;;;23.50;36.20;;;;;;1577494;74;795;-57
2021/05/03 06:38:34;;;;;;;;;;;23.50;36.00;;;;;;1565159;74;808;-56
2021/05/03 06:40:36;;;;;;;;;;;23.60;36.00;;;;;;1575910;74;1180;-56
2021/05/03 06:42:38;;;;;;;;;;;23.70;36.10;;;;;;1572216;74;721;-56
2021/05/03 06:44:40;;;;;;;;;;;23.70;35.90;;;;;;1565800;74;757;-56
2021/05/03 06:46:42;;;;;;;;;;;23.70;35.70;;;;;;1560771;74;852;-55
2021/05/03 06:48:43;;;;;;;;;;;23.60;35.60;;;;;;1566672;74;879;-56
2021/05/03 06:50:45;;;;;;;;;;;23.60;35.60;;;;;;1564109;74;1943;-56
2021/05/03 06:52:47;;;;;;;;;;;23.60;35.60;;;;;;1566828;74;904;-54
2021/05/03 06:54:49;;;;;;;;;;;23.60;35.60;;;;;;1564942;74;792;-52
2021/05/03 06:56:51;;;;;;;;;;;23.60;35.60;;;;;;1566357;74;659;-53
2021/05/03 06:58:53;;;;;;;;;;;23.60;35.70;;;;;;1565819;74;817;-55
2021/05/03 07:00:55;;;;;;;;;;;23.70;35.70;;;;;;1573942;74;1097;-56
2021/05/03 07:02:57;;;;;;;;;;;23.70;35.70;;;;;;1574395;74;1040;-56
2021/05/03 07:04:59;;;;;;;;;;;23.70;35.60;;;;;;1570982;74;787;-55
2021/05/03 07:07:01;;;;;;;;;;;23.70;36.00;;;;;;1570597;74;753;-56
2021/05/03 07:09:07;;;;;;;;;;;23.70;36.10;;;;;;1567793;74;782;-55
2021/05/03 07:11:13;;;;;;;;;;;23.70;36.50;;;;;;1571137;74;1934;-55
2021/05/03 07:13:13;;;;;;;;;;;23.80;36.60;;;;;;1566935;74;1564;-51
2021/05/03 07:15:15;;;;;;;;;;;23.70;36.70;;;;;;1569450;74;739;-51
2021/05/03 07:17:17;;;;;;;;;;;23.70;36.70;;;;;;1570288;74;677;-56
2021/05/03 07:19:19;;;;;;;;;;;23.70;36.60;;;;;;1569131;74;1159;-54
2021/05/03 07:21:21;;;;;;;;;;;23.70;36.60;;;;;;1560359;74;701;-52
2021/05/03 07:23:23;;;;;;;;;;;23.70;36.50;;;;;;1556994;74;741;-57
2021/05/03 07:25:25;;;;;;;;;;;23.70;36.60;;;;;;1555737;74;896;-56
2021/05/03 07:27:26;;;;;;;;;;;23.70;36.60;;;;;;1554998;74;793;-56
2021/05/03 07:29:28;;;;;;;;;;;23.80;36.70;;;;;;1573793;74;1933;-56
2021/05/03 07:31:32;;;;;;;;;;;24.00;36.50;;;;;;1575218;74;722;-57
2021/05/03 07:33:34;;;;;;;;;;;24.00;36.40;;;;;;1565255;74;773;-52
2021/05/03 07:35:35;;;;;;;;;;;24.10;36.30;;;;;;1573257;74;770;-57
2021/05/03 07:37:37;;;;;;;;;;;24.20;36.30;;;;;;1564194;74;749;-57
2021/05/03 07:39:39;;;;;;;;;;;24.20;36.30;;;;;;1559056;74;1169;-57
2021/05/03 07:41:41;;;;;;;;;;;24.20;36.20;;;;;;1545734;75;1047;-55
2021/05/03 07:43:43;;;;;;;;;;;24.20;36.20;;;;;;1568062;74;775;-56
2021/05/03 07:45:45;;;;;;;;;;;24.30;36.20;;;;;;1563172;74;774;-55
2021/05/03 07:47:47;;;;;;;;;;;24.20;36.00;;;;;;1560199;74;900;-56
2021/05/03 07:49:49;;;;;;;;;;;24.30;36.10;;;;;;1565768;74;1963;-53
2021/05/03 07:51:51;;;;;;;;;;;24.30;35.90;;;;;;1547379;71;219047;-73
2021/05/03 07:53:53;;;;;;;;;;;24.20;35.70;;;;;;1549373;75;715;-73
2021/05/03 07:55:55;;;;;;;;;;;24.20;35.70;;;;;;1550930;75;715;-74
2021/05/03 07:57:59;;;;;;;;;;;24.30;35.70;;;;;;1553819;75;810;-73
2021/05/03 08:00:00;;;;;;;;;;;24.30;35.70;;;;;;1544332;75;929;-73
2021/05/03 08:02:02;;;;;;;;;;;24.20;35.50;;;;;;1539689;75;1146;-72
2021/05/03 08:04:04;;;;;;;;;;;24.30;35.50;;;;;;1552849;75;720;-73
2021/05/03 08:06:06;;;;;;;;;;;24.30;35.50;;;;;;1545938;75;937;-72
2021/05/03 08:08:08;;;;;;;;;;;24.40;35.50;;;;;;1507953;77;669;-72
2021/05/03 08:10:10;;;;;;;;;;;24.30;35.40;;;;;;1496029;78;1937;-73
2021/05/03 08:12:12;;;;;;;;;;;24.30;35.30;;;;;;1545244;75;1142;-72
2021/05/03 08:14:18;;;;;;;;;;;24.30;35.20;;;;;;1549537;75;777;-71
2021/05/03 08:16:19;;;;;;;;;;;24.30;35.30;;;;;;1539330;74;1947;-72
2021/05/03 08:18:21;;;;;;;;;;;24.20;35.20;;;;;;1542186;75;2032;-73
2021/05/03 08:20:23;;;;;;;;;;;24.20;35.20;;;;;;1564335;75;1161;-72
2021/05/03 08:22:25;;;;;;;;;;;24.30;35.40;;;;;;1558849;75;761;-72
2021/05/03 08:24:27;;;;;;;;;;;24.20;35.30;;;;;;1551743;75;696;-71
2021/05/03 08:26:28;;;;;;;;;;;24.20;35.30;;;;;;1545163;75;774;-71
2021/05/03 08:28:30;;;;;;;;;;;24.20;35.30;;;;;;1547525;75;811;-71
2021/05/03 08:30:32;;;;;;;;;;;24.20;35.30;;;;;;1550299;75;1930;-72
2021/05/03 08:32:35;;;;;;;;;;;24.20;35.40;;;;;;1545357;75;717;-71
2021/05/03 08:34:36;;;;;;;;;;;24.20;35.40;;;;;;1541763;75;865;-72
2021/05/03 08:36:38;;;;;;;;;;;24.30;35.50;;;;;;1547863;75;793;-71
2021/05/03 08:38:40;;;;;;;;;;;24.30;35.50;;;;;;1541006;75;720;-72
2021/05/03 08:40:42;;;;;;;;;;;24.40;35.30;;;;;;1567465;75;1187;-71
2021/05/03 08:42:44;;;;;;;;;;;24.30;35.20;;;;;;1565987;75;809;-71
2021/05/03 08:44:48;;;;;;;;;;;24.30;35.20;;;;;;1561102;75;746;-72
2021/05/03 08:46:50;;;;;;;;;;;24.40;35.10;;;;;;1555383;75;1484;-71
2021/05/03 08:48:58;;;;;;;;;;;24.30;35.10;;;;;;1553561;75;829;-71
2021/05/03 08:51:27;;;;;;;;;;;24.20;35.00;;;;;;1546705;75;1923;-71
2021/05/03 08:53:22;;;;;;;;;;;24.20;35.00;;;;;;1549483;75;1159;-72
2021/05/03 08:55:22;;;;;;;;;;;24.20;35.00;;;;;;1560730;75;1702;-72
2021/05/03 08:57:23;;;;;;;;;;;24.20;35.20;;;;;;1543980;75;918;-71
2021/05/03 08:59:25;;;;;;;;;;;24.20;35.20;;;;;;1537025;75;755;-71
2021/05/03 09:01:27;;;;;;;;;;;24.10;35.20;;;;;;1536976;75;1161;-71
2021/05/03 09:03:29;;;;;;;;;;;24.20;35.20;;;;;;1541045;75;771;-72
2021/05/03 09:05:32;;;;;;;;;;;24.20;35.30;;;;;;1542173;75;800;-67
2021/05/03 09:07:34;;;;;;;;;;;24.20;35.20;;;;;;1540450;75;842;-71
2021/05/03 09:09:45;;;;;;;;;;;24.20;35.20;;;;;;1552077;75;723;-73
2021/05/03 09:11:48;;;;;;;;;;;24.20;35.20;;;;;;1547347;75;1935;-72
2021/05/03 09:13:50;;;;;;;;;;;24.20;35.00;;;;;;1549793;75;1963;-72
2021/05/03 09:15:52;;;;;;;;;;;24.20;35.00;;;;;;1560527;75;747;-71
2021/05/03 09:17:54;;;;;;;;;;;24.20;35.00;;;;;;1546177;75;736;-72
2021/05/03 09:19:56;;;;;;;;;;;24.20;35.10;;;;;;1545550;75;727;-70
2021/05/03 09:21:58;;;;;;;;;;;24.20;35.00;;;;;;1542808;75;1147;-72
2021/05/03 09:24:06;;;;;;;;;;;24.30;35.20;;;;;;1548047;75;729;-72
2021/05/03 09:26:08;;;;;;;;;;;24.30;35.20;;;;;;1555234;75;649;-70
2021/05/03 09:28:19;;;;;;;;;;;24.30;35.10;;;;;;1544788;75;720;-66
2021/05/03 09:30:34;;;;;;;;;;;24.30;35.10;;;;;;1537342;75;2038;-71
2021/05/03 09:32:36;;;;;;;;;;;24.20;35.10;;;;;;1542610;75;745;-70
2021/05/03 09:34:39;;;;;;;;;;;24.20;35.20;;;;;;1543280;75;831;-69
2021/05/03 09:36:41;;;;;;;;;;;24.20;35.20;;;;;;1547818;75;733;-74
2021/05/03 09:38:46;;;;;;;;;;;24.20;35.20;;;;;;1540531;75;746;-72
2021/05/03 09:40:48;;;;;;;;;;;24.20;35.30;;;;;;1540383;75;1204;-73
2021/05/03 09:42:54;;;;;;;;;;;24.20;35.30;;;;;;1558350;75;776;-73
2021/05/03 09:45:03;;;;;;;;;;;24.20;35.30;;;;;;1554760;75;708;-73
2021/05/03 09:47:05;;;;;;;;;;;24.30;35.40;;;;;;1547902;75;1796;-73
2021/05/03 09:49:08;;;;;;;;;;;24.20;35.20;;;;;;1550314;75;747;-73
2021/05/03 09:51:10;;;;;;;;;;;24.30;35.20;;;;;;1547060;75;1935;-73
2021/05/03 09:53:13;;;;;;;;;;;24.30;35.20;;;;;;1548253;75;778;-71
2021/05/03 09:55:33;;;;;;;;;;;24.30;35.20;;;;;;1555945;75;813;-73
2021/05/03 09:57:35;;;;;;;;;;;24.30;35.20;;;;;;1533057;75;802;-72
2021/05/03 09:59:39;;;;;;;;;;;24.30;35.20;;;;;;1548403;75;657;-73
2021/05/03 10:01:40;;;;;;;;;;;24.30;35.20;;;;;;1540417;75;1158;-74
2021/05/03 10:03:46;;;;;;;;;;;24.30;35.10;;;;;;1517529;76;734;-73
2021/05/03 10:05:48;;;;;;;;;;;24.40;35.00;;;;;;1479970;78;830;-73
2021/05/03 10:07:55;;;;;;;;;;;24.30;35.10;;;;;;1476590;78;801;-73
2021/05/03 10:10:01;;;;;;;;;;;24.40;35.00;;;;;;1476635;78;846;-73
2021/05/03 10:12:01;;;;;;;;;;;24.30;35.00;;;;;;1474258;78;1948;-73
2021/05/03 10:14:03;;;;;;;;;;;24.40;35.00;;;;;;1472388;78;711;-73
2021/05/03 10:16:06;;;;;;;;;;;24.30;34.90;;;;;;1533371;75;759;-74
2021/05/03 10:18:09;;;;;;;;;;;24.40;34.90;;;;;;1536326;75;667;-73
2021/05/03 10:20:11;;;;;;;;;;;24.30;34.90;;;;;;1538059;75;735;-72
2021/05/03 10:22:17;;;;;;;;;;;24.30;34.90;;;;;;1532441;75;1151;-73
2021/05/03 10:24:19;;;;;;;;;;;24.40;34.90;;;;;;1531382;75;737;-73
2021/05/03 10:26:20;;;;;;;;;;;24.30;34.80;;;;;;1526794;75;908;-75
2021/05/03 10:28:22;;;;;;;;;;;24.40;34.90;;;;;;1532687;75;721;-75
2021/05/03 10:30:25;;;;;;;;;;;24.30;34.80;;;;;;1534120;75;1125;-74
2021/05/03 10:32:27;;;;;;;;;;;24.30;34.80;;;;;;1541045;75;1937;-71
2021/05/03 10:34:39;;;;;;;;;;;24.30;34.80;;;;;;1543987;75;758;-73
2021/05/03 10:36:41;;;;;;;;;;;24.10;35.30;;;;;;1543205;75;815;-72
2021/05/03 10:38:43;;;;;;;;;;;24.10;35.40;;;;;;1535704;75;799;-72
2021/05/03 10:40:45;;;;;;;;;;;24.00;35.40;;;;;;1531466;75;1106;-71
2021/05/03 10:42:48;;;;;;;;;;;24.00;35.50;;;;;;1532086;75;745;-72
2021/05/03 10:45:10;;;;;;;;;;;24.10;35.70;;;;;;1514624;75;1713;-71
2021/05/03 10:47:34;;;;;;;;;;;24.00;35.70;;;;;;1533151;75;1034;-70
2021/05/03 10:49:34;;;;;;;;;;;24.00;35.80;;;;;;1541564;75;1633;-71
2021/05/03 10:51:41;;;;;;;;;;;24.00;36.00;;;;;;1533190;75;1959;-71
2021/05/03 10:53:44;;;;;;;;;;;23.90;36.10;;;;;;1537560;75;1661;-72
2021/05/03 10:55:54;;;;;;;;;;;24.00;36.00;;;;;;1536457;75;1694;-71
2021/05/03 10:58:00;;;;;;;;;;;24.00;36.10;;;;;;1538320;75;822;-71
2021/05/03 11:00:02;;;;;;;;;;;24.00;36.10;;;;;;1537669;75;1464;-71
2021/05/03 11:02:06;;;;;;;;;;;24.00;36.00;;;;;;1534840;75;1119;-71
2021/05/03 11:04:08;;;;;;;;;;;24.00;36.10;;;;;;1534102;75;791;-71
2021/05/03 11:06:09;;;;;;;;;;;24.00;36.20;;;;;;1532325;75;722;-71
2021/05/03 11:08:13;;;;;;;;;;;24.00;36.20;;;;;;1529683;75;728;-69
2021/05/03 11:10:15;;;;;;;;;;;24.00;36.30;;;;;;1530344;75;1132;-72
2021/05/03 11:12:18;;;;;;;;;;;24.00;36.40;;;;;;1536747;75;1936;-69
2021/05/03 11:14:21;;;;;;;;;;;24.10;36.50;;;;;;1538751;75;734;-72
2021/05/03 11:16:33;;;;;;;;;;;24.00;36.50;;;;;;1535340;75;726;-72
2021/05/03 11:18:37;;;;;;;;;;;24.10;36.60;;;;;;1540788;75;709;-73
2021/05/03 11:20:57;;;;;;;;;;;24.00;36.50;;;;;;1535588;75;2245;-71
2021/05/03 11:23:04;;;;;;;;;;;24.00;36.50;;;;;;1533145;75;782;-71
2021/05/03 11:25:09;;;;;;;;;;;24.00;36.70;;;;;;1532748;75;1706;-71
2021/05/03 11:27:18;;;;;;;;;;;24.00;36.80;;;;;;1533190;75;663;-68
2021/05/03 11:29:18;;;;;;;;;;;24.00;36.90;;;;;;1543117;75;1635;-70
2021/05/03 11:31:24;;;;;;;;;;;23.90;36.90;;;;;;1551734;74;1931;-70
2021/05/03 11:33:25;;;;;;;;;;;24.00;36.90;;;;;;1555283;75;1641;-71
2021/05/03 11:35:33;;;;;;;;;;;24.00;36.90;;;;;;1556014;75;1824;-71
2021/05/03 11:37:37;;;;;;;;;;;24.00;36.90;;;;;;1548330;75;1440;-71
2021/05/03 11:40:01;;;;;;;;;;;23.90;36.90;;;;;;1523784;77;1709;-74
2021/05/03 11:46:31;;;;;;;;;;;24.10;37.00;;;;;;1534616;75;1635;-72
2021/05/03 11:48:30;;;;;;;;;;;24.10;36.70;;;;;;1541583;75;1694;-73
2021/05/03 11:50:32;;;;;;;;;;;24.10;36.60;;;;;;1529509;75;1085;-73
2021/05/03 11:52:35;;;;;;;;;;;24.20;36.50;;;;;;1534935;75;1934;-73
2021/05/03 11:54:41;;;;;;;;;;;24.20;36.40;;;;;;1544445;75;710;-73
2021/05/03 11:56:41;;;;;;;;;;;24.20;36.30;;;;;;1549277;75;1490;-73
2021/05/03 11:58:45;;;;;;;;;;;24.10;36.30;;;;;;1545130;75;782;-73
2021/05/03 12:00:47;;;;;;;;;;;24.10;36.30;;;;;;1541308;75;1927;-73
2021/05/03 12:02:50;;;;;;;;;;;24.10;36.30;;;;;;1535887;75;657;-74
2021/05/03 12:04:52;;;;;;;;;;;24.10;36.30;;;;;;1546983;74;2004;-76
2021/05/03 12:06:54;;;;;;;;;;;24.10;36.30;;;;;;1553769;75;816;-77
2021/05/03 12:09:03;;;;;;;;;;;24.10;36.20;;;;;;1554638;75;771;-76
2021/05/03 12:11:08;;;;;;;;;;;24.00;36.10;;;;;;1561323;74;1947;-77
2021/05/03 12:13:20;;;;;;;;;;;24.00;36.20;;;;;;1566787;75;692;-77
2021/05/03 12:15:26;;;;;;;;;;;23.90;36.30;;;;;;1548706;75;1669;-75
2021/05/03 12:17:29;;;;;;;;;;;23.90;36.30;;;;;;1557093;75;775;-78
2021/05/03 12:19:31;;;;;;;;;;;23.90;36.40;;;;;;1543442;75;751;-76
2021/05/03 12:21:32;;;;;;;;;;;23.90;36.40;;;;;;1549535;75;1164;-74
2021/05/03 12:23:34;;;;;;;;;;;23.90;36.50;;;;;;1545655;75;733;-76
2021/05/03 12:25:44;;;;;;;;;;;23.90;36.50;;;;;;1554004;75;826;-74
2021/05/03 12:27:44;;;;;;;;;;;23.90;36.30;;;;;;1547455;75;1558;-73
2021/05/03 12:29:46;;;;;;;;;;;24.00;36.20;;;;;;1543701;75;752;-72
2021/05/03 12:31:48;;;;;;;;;;;24.00;36.10;;;;;;1553241;75;1921;-75